Terminal Aerodrome Forecast
Issued by NWS

Home | Current Version | Previous Version | Text Only | Print | Product List | Glossary Off
Versions: 1 2 3 4 5 6 7 8 9 10 11 12 13 14 15 16 17

000
FTUS43 KICT 231728 AAC
TAFRSL
TAF AMD
KRSL 231728Z 2317/2418 18026G35KT P6SM SCT020 BKN035
      TEMPO 2318/2321 BKN016
     FM240900 17022G31KT P6SM SCT030 BKN110
     FM241200 17015G23KT P6SM SCT250=

USA.gov is the U.S. government's official web portal to all federal, state and local government web resources and services.